createdAt,value
2017-09-15T02:45:13.518Z,14.40
2017-09-15T02:47:39.564Z,11.30
2017-09-15T02:50:05.629Z,11.20
2017-09-15T02:52:31.683Z,11.20
2017-09-15T02:54:57.753Z,11.20
2017-09-15T02:57:23.817Z,11.20
2017-09-15T02:59:49.861Z,11.20
2017-09-15T03:02:16.653Z,11.10
2017-09-15T03:04:42.732Z,11.10
2017-09-15T03:07:09.506Z,11.10
2017-09-15T03:09:35.557Z,11.00
2017-09-15T03:12:02.369Z,11.00
2017-09-15T03:14:28.447Z,11.00
2017-09-15T03:16:55.284Z,11.00
2017-09-15T03:19:21.353Z,11.00
2017-09-15T03:21:47.442Z,11.00
2017-09-15T03:24:14.264Z,10.90
2017-09-15T03:26:40.346Z,10.90
2017-09-15T03:29:06.412Z,10.90
2017-09-15T03:31:32.481Z,10.80
2017-09-15T03:33:58.554Z,10.80
2017-09-15T03:36:24.629Z,10.80
2017-09-15T03:38:50.677Z,10.80
2017-09-15T03:41:16.743Z,10.70
2017-09-15T03:43:42.781Z,10.70
2017-09-15T03:46:08.868Z,10.70
2017-09-15T03:48:35.677Z,10.60
2017-09-15T03:51:02.493Z,10.60
2017-09-15T03:53:28.573Z,10.60
2017-09-15T03:55:54.650Z,10.60
2017-09-15T03:58:20.716Z,10.50
2017-09-15T04:00:46.769Z,10.50
2017-09-15T04:03:20.470Z,10.50
2017-09-15T04:05:46.521Z,10.50
2017-09-15T04:08:12.696Z,10.50
2017-09-15T04:10:38.741Z,10.50
2017-09-15T04:13:04.793Z,10.50
2017-09-15T04:15:30.820Z,10.40
2017-09-15T04:17:56.890Z,10.50
2017-09-15T04:20:23.658Z,10.50
2017-09-15T04:22:49.705Z,10.50
2017-09-15T04:25:16.480Z,10.50
2017-09-15T04:27:42.509Z,10.60
2017-09-15T04:30:08.562Z,10.60
2017-09-15T04:32:34.593Z,10.60
2017-09-15T04:35:00.669Z,10.60
2017-09-15T04:37:27.481Z,10.70
2017-09-15T04:39:54.321Z,10.70
2017-09-15T04:42:20.379Z,10.70
2017-09-15T04:44:46.457Z,10.80
2017-09-15T04:47:13.248Z,10.80
2017-09-15T04:49:39.329Z,10.80
2017-09-15T04:52:05.387Z,10.80
2017-09-15T04:54:32.237Z,10.70
2017-09-15T04:56:58.292Z,10.70
2017-09-15T04:59:24.383Z,10.70
2017-09-15T05:01:50.446Z,10.70
2017-09-15T05:04:16.667Z,10.70
2017-09-15T05:06:43.477Z,10.70
2017-09-15T05:09:09.546Z,10.70
2017-09-15T05:11:35.630Z,10.60
2017-09-15T05:14:02.405Z,10.60
2017-09-15T05:16:28.471Z,10.60
2017-09-15T05:18:54.525Z,10.60
2017-09-15T05:21:20.593Z,10.60
2017-09-15T05:23:46.645Z,10.50
2017-09-15T05:26:12.695Z,10.50
2017-09-15T05:28:38.788Z,10.50
2017-09-15T05:31:04.831Z,10.50
2017-09-15T05:33:30.888Z,10.50
2017-09-15T05:35:56.978Z,10.50
2017-09-15T05:38:23.037Z,10.60
2017-09-15T05:40:49.844Z,10.50
2017-09-15T05:43:17.752Z,10.50
2017-09-15T05:45:43.790Z,10.60
2017-09-15T05:48:09.836Z,10.70
2017-09-15T05:50:36.641Z,10.70
2017-09-15T05:53:02.715Z,10.60
2017-09-15T05:55:28.770Z,10.70
2017-09-15T05:57:55.594Z,10.70
2017-09-15T06:00:21.633Z,10.70
2017-09-15T06:02:47.682Z,10.70
2017-09-15T06:05:13.737Z,10.70
2017-09-15T06:07:40.520Z,10.80
2017-09-15T06:10:06.585Z,10.70
2017-09-15T06:12:32.650Z,10.90
2017-09-15T06:14:58.750Z,11.00
2017-09-15T06:17:24.793Z,11.00
2017-09-15T06:19:51.614Z,11.00
2017-09-15T06:22:18.704Z,10.90
2017-09-15T06:24:44.762Z,10.90
2017-09-15T06:27:11.568Z,11.00
2017-09-15T06:29:37.627Z,10.90
2017-09-15T06:32:03.696Z,11.00
2017-09-15T06:34:30.516Z,11.10
2017-09-15T06:36:56.586Z,11.10
2017-09-15T06:39:22.662Z,11.10
2017-09-15T06:41:48.729Z,11.20
2017-09-15T06:44:14.777Z,11.30
2017-09-15T06:46:41.607Z,11.40
2017-09-15T06:49:07.712Z,11.40
2017-09-15T06:51:33.771Z,11.50
2017-09-15T06:53:59.857Z,11.50
2017-09-15T06:56:25.902Z,11.40
2017-09-15T06:58:51.962Z,11.40
2017-09-15T07:01:18.730Z,11.40
2017-09-15T07:03:44.858Z,11.40
2017-09-15T07:06:11.673Z,11.40
2017-09-15T07:08:37.723Z,11.40
2017-09-15T07:11:03.781Z,11.40
2017-09-15T07:13:29.875Z,11.50
2017-09-15T07:15:55.986Z,11.60
2017-09-15T07:18:22.078Z,11.60
2017-09-15T07:20:48.862Z,11.50
2017-09-15T07:23:14.931Z,11.50
2017-09-15T07:25:40.996Z,11.50
2017-09-15T07:28:07.774Z,11.70
2017-09-15T07:30:33.846Z,11.70
2017-09-15T07:32:59.913Z,11.80
2017-09-15T07:35:25.967Z,11.80
2017-09-15T07:37:52.031Z,12.00
2017-09-15T07:40:18.084Z,12.10
2017-09-15T07:42:44.881Z,12.30
2017-09-15T07:45:11.669Z,12.40
2017-09-15T07:47:37.713Z,12.40
2017-09-15T07:50:03.769Z,12.60
2017-09-15T07:52:29.802Z,12.70
2017-09-15T07:54:55.829Z,12.70
2017-09-15T07:57:21.868Z,12.70
2017-09-15T07:59:47.941Z,12.80
2017-09-15T08:02:13.990Z,12.90
2017-09-15T08:04:40.822Z,13.30
2017-09-15T08:07:07.619Z,13.40
2017-09-15T08:09:33.650Z,13.40
2017-09-15T08:11:59.703Z,13.50
2017-09-15T08:14:25.772Z,13.60
2017-09-15T08:16:51.812Z,13.70
2017-09-15T08:19:17.854Z,13.90
2017-09-15T08:21:43.957Z,14.00
2017-09-15T08:24:09.976Z,14.00
2017-09-15T08:26:36.036Z,14.10
2017-09-15T08:29:02.125Z,13.90
2017-09-15T08:31:28.917Z,13.90
2017-09-15T08:33:54.953Z,13.90
2017-09-15T08:36:21.720Z,14.00
2017-09-15T08:38:47.781Z,14.00
2017-09-15T08:41:13.825Z,14.00
2017-09-15T08:43:40.597Z,14.40
2017-09-15T08:46:06.617Z,14.40
2017-09-15T12:35:18.505Z,14.70
2017-09-15T12:37:44.579Z,23.30
2017-09-15T19:10:07.064Z,22.80
2017-09-15T19:12:33.837Z,13.20
2017-09-15T19:14:59.908Z,13.20
2017-09-15T19:17:25.967Z,13.30
2017-09-15T19:19:51.995Z,13.20
2017-09-15T19:22:18.092Z,13.20
2017-09-15T19:24:44.143Z,13.20
2017-09-15T19:27:10.172Z,13.10
2017-09-15T19:29:36.205Z,13.00
2017-09-15T19:32:02.289Z,13.00
2017-09-15T19:34:28.439Z,13.10
2017-09-15T19:36:54.485Z,13.00
2017-09-15T19:39:20.583Z,12.90
2017-09-15T19:41:46.667Z,12.90
2017-09-15T19:44:12.708Z,12.90
2017-09-15T19:46:39.534Z,12.80
2017-09-15T19:49:05.626Z,12.90
2017-09-15T19:51:32.432Z,12.80
2017-09-15T19:53:58.478Z,12.80
2017-09-15T19:56:25.286Z,12.80
2017-09-15T19:58:51.330Z,12.80
2017-09-15T20:01:17.378Z,12.80
2017-09-15T20:03:43.426Z,12.80
2017-09-15T20:06:10.211Z,12.70
2017-09-15T20:08:36.249Z,12.70
2017-09-15T20:11:03.049Z,12.70
2017-09-15T20:13:29.088Z,12.70
2017-09-15T20:15:55.115Z,12.60
2017-09-15T20:18:21.161Z,12.70
2017-09-15T20:20:47.246Z,12.70
2017-09-15T20:23:13.304Z,12.60
2017-09-15T20:25:39.362Z,12.70
2017-09-15T20:28:05.414Z,12.70
2017-09-15T20:30:31.481Z,12.70
2017-09-15T20:32:57.505Z,12.70
2017-09-15T20:35:23.575Z,12.70
2017-09-15T20:37:50.349Z,12.60
2017-09-15T20:40:16.399Z,12.60
2017-09-15T20:42:43.178Z,12.60
2017-09-15T20:45:09.213Z,12.50
2017-09-15T20:47:35.281Z,12.60
2017-09-15T20:50:01.330Z,12.60
2017-09-15T20:52:28.199Z,12.50
2017-09-15T20:54:54.997Z,12.40
2017-09-15T20:57:21.090Z,12.40
2017-09-15T20:59:47.131Z,12.40
2017-09-15T21:02:13.931Z,12.40
2017-09-15T21:04:39.983Z,12.30
2017-09-15T21:07:06.045Z,12.30
2017-09-15T21:09:32.102Z,12.30
2017-09-15T21:11:58.148Z,12.30
